This is the latest recevied weather packets stored in our database for station/object OE6ACM-14. If no packets are shown the sender has not sent any weather packets the latest 1 day(s).
| Time | Temp. | Humidity | Pressure | Rain* | Wind** | Luminosity | Snow |
|---|---|---|---|---|---|---|---|
| 1778107779 | 12.78° C | 60% | 920.4 hPa | - | - | - | - |
| 1778107179 | 13.33° C | 59% | 920.5 hPa | - | - | - | - |
| 1778102979 | 14.44° C | 54% | 920 hPa | - | - | - | - |
| 1778102679 | 14.44° C | 54% | 920 hPa | - | - | - | - |
| 1778102079 | 14.44° C | 53% | 920.1 hPa | - | - | - | - |
| 1778101779 | 14.44° C | 53% | 920 hPa | - | - | - | - |
| 1778101179 | 14.44° C | 53% | 920.1 hPa | - | - | - | - |
| 1778100279 | 14.44° C | 53% | 920 hPa | - | - | - | - |
| 1778095779 | 15.56° C | 49% | 919.4 hPa | - | - | - | - |
| 1778095479 | 15.56° C | 49% | 919.4 hPa | - | - | - | - |
| 1778093979 | 15.56° C | 52% | 919.2 hPa | - | - | - | - |
| 1778093079 | 15° C | 56% | 918.9 hPa | - | - | - | - |
| 1778092179 | 15.56° C | 55% | 918.6 hPa | - | - | - | - |
| 1778090079 | 16.11° C | 50% | 918.1 hPa | - | - | - | - |
| 1778088279 | 16.67° C | 48% | 918 hPa | - | - | - | - |
| 1778087979 | 17.22° C | 47% | 918.2 hPa | - | - | - | - |
| 1778087679 | 17.22° C | 47% | 918 hPa | - | - | - | - |
| 1778086779 | 17.22° C | 46% | 918 hPa | - | - | - | - |
| 1778085579 | 18.33° C | 44% | 918 hPa | - | - | - | - |
| 1778084679 | 18.89° C | 44% | 918.1 hPa | - | - | - | - |
| 1778084379 | 18.89° C | 43% | 918.1 hPa | - | - | - | - |
| 1778084079 | 18.89° C | 43% | 918.2 hPa | - | - | - | - |
| 1778083779 | 18.33° C | 43% | 918.2 hPa | - | - | - | - |
| 1778083479 | 18.89° C | 43% | 918.3 hPa | - | - | - | - |
| 1778081679 | 19.44° C | 41% | 918.3 hPa | - | - | - | - |
* Rain since midnight (hover to see other rain measurements)
** Current wind speed in m/s (hover to see current wind gust speed)